sensor_id;sensor_type;location;lat;lon;timestamp;pressure;altitude;pressure_sealevel;temperature;humidity
73103;BME280;61294;65.988;29.172;2023-04-27T00:01:10;98074.31;;;-1.97;71.57
73103;BME280;61294;65.988;29.172;2023-04-27T00:03:37;98092.63;;;-1.91;71.95
73103;BME280;61294;65.988;29.172;2023-04-27T00:06:03;98086.50;;;-1.93;71.88
73103;BME280;61294;65.988;29.172;2023-04-27T00:08:29;98093.53;;;-1.88;71.19
73103;BME280;61294;65.988;29.172;2023-04-27T00:10:58;98102.06;;;-1.91;71.59
73103;BME280;61294;65.988;29.172;2023-04-27T00:13:24;98080.97;;;-2.03;71.44
73103;BME280;61294;65.988;29.172;2023-04-27T00:15:50;98101.03;;;-1.96;71.60
73103;BME280;61294;65.988;29.172;2023-04-27T00:18:15;98083.28;;;-2.11;71.34
73103;BME280;61294;65.988;29.172;2023-04-27T00:20:41;98087.13;;;-2.00;71.30
73103;BME280;61294;65.988;29.172;2023-04-27T00:23:10;98067.03;;;-2.09;71.18
73103;BME280;61294;65.988;29.172;2023-04-27T00:25:36;98090.41;;;-2.04;70.85
73103;BME280;61294;65.988;29.172;2023-04-27T00:28:02;98102.72;;;-1.97;71.50
73103;BME280;61294;65.988;29.172;2023-04-27T00:30:30;98094.81;;;-2.01;71.40
73103;BME280;61294;65.988;29.172;2023-04-27T00:32:56;98071.03;;;-2.17;71.22
73103;BME280;61294;65.988;29.172;2023-04-27T00:35:22;98086.84;;;-2.08;71.32
73103;BME280;61294;65.988;29.172;2023-04-27T00:37:48;98092.72;;;-2.12;71.07
73103;BME280;61294;65.988;29.172;2023-04-27T00:40:14;98095.56;;;-2.04;71.38
73103;BME280;61294;65.988;29.172;2023-04-27T00:42:40;98066.56;;;-2.21;71.15
73103;BME280;61294;65.988;29.172;2023-04-27T00:45:06;98105.84;;;-2.05;71.09
73103;BME280;61294;65.988;29.172;2023-04-27T00:47:32;98099.00;;;-2.05;71.07
73103;BME280;61294;65.988;29.172;2023-04-27T00:49:58;98061.00;;;-2.33;71.13
73103;BME280;61294;65.988;29.172;2023-04-27T00:52:24;98109.97;;;-2.11;71.01
73103;BME280;61294;65.988;29.172;2023-04-27T00:54:51;98072.53;;;-2.23;71.01
73103;BME280;61294;65.988;29.172;2023-04-27T00:57:17;98103.09;;;-2.10;71.05
73103;BME280;61294;65.988;29.172;2023-04-27T00:59:43;98109.78;;;-2.15;71.38
73103;BME280;61294;65.988;29.172;2023-04-27T01:02:09;98109.88;;;-2.14;71.50
73103;BME280;61294;65.988;29.172;2023-04-27T01:04:36;98116.75;;;-2.13;71.54
73103;BME280;61294;65.988;29.172;2023-04-27T01:07:02;98089.59;;;-2.27;71.42
73103;BME280;61294;65.988;29.172;2023-04-27T01:09:28;98078.34;;;-2.29;71.42
73103;BME280;61294;65.988;29.172;2023-04-27T01:11:54;98112.44;;;-2.14;71.23
73103;BME280;61294;65.988;29.172;2023-04-27T01:14:20;98116.66;;;-2.16;71.28
73103;BME280;61294;65.988;29.172;2023-04-27T01:16:46;98107.28;;;-2.14;71.54
73103;BME280;61294;65.988;29.172;2023-04-27T01:19:12;98109.03;;;-2.13;71.32
73103;BME280;61294;65.988;29.172;2023-04-27T01:21:38;98117.00;;;-2.06;71.22
73103;BME280;61294;65.988;29.172;2023-04-27T01:24:07;98077.91;;;-2.17;71.51
73103;BME280;61294;65.988;29.172;2023-04-27T01:26:33;98093.88;;;-2.03;71.23
73103;BME280;61294;65.988;29.172;2023-04-27T01:28:59;98093.84;;;-2.05;71.25
73103;BME280;61294;65.988;29.172;2023-04-27T01:31:25;98108.88;;;-1.93;70.83
73103;BME280;61294;65.988;29.172;2023-04-27T01:33:51;98119.41;;;-1.87;71.10
73103;BME280;61294;65.988;29.172;2023-04-27T01:36:16;98117.78;;;-1.85;71.23
73103;BME280;61294;65.988;29.172;2023-04-27T01:38:43;98111.81;;;-1.84;70.99
73103;BME280;61294;65.988;29.172;2023-04-27T01:41:09;98118.81;;;-1.80;71.06
73103;BME280;61294;65.988;29.172;2023-04-27T01:43:35;98106.50;;;-1.87;71.56
73103;BME280;61294;65.988;29.172;2023-04-27T01:46:08;98108.47;;;-1.80;71.17
73103;BME280;61294;65.988;29.172;2023-04-27T01:48:35;98104.06;;;-1.84;71.11
73103;BME280;61294;65.988;29.172;2023-04-27T01:51:01;98098.00;;;-1.84;71.60
73103;BME280;61294;65.988;29.172;2023-04-27T01:53:28;98105.78;;;-1.83;71.17
73103;BME280;61294;65.988;29.172;2023-04-27T01:55:54;98116.56;;;-1.70;71.48
73103;BME280;61294;65.988;29.172;2023-04-27T01:58:20;98124.31;;;-1.70;71.57
73103;BME280;61294;65.988;29.172;2023-04-27T02:00:46;98125.13;;;-1.71;71.18
73103;BME280;61294;65.988;29.172;2023-04-27T02:03:11;98097.84;;;-1.89;71.62
73103;BME280;61294;65.988;29.172;2023-04-27T02:05:37;98116.34;;;-1.77;71.70
73103;BME280;61294;65.988;29.172;2023-04-27T02:08:03;98122.28;;;-1.79;71.59
73103;BME280;61294;65.988;29.172;2023-04-27T02:10:29;98124.72;;;-1.84;72.26
73103;BME280;61294;65.988;29.172;2023-04-27T02:12:55;98116.00;;;-1.86;71.89
73103;BME280;61294;65.988;29.172;2023-04-27T02:15:21;98119.34;;;-1.88;72.58
73103;BME280;61294;65.988;29.172;2023-04-27T02:17:47;98119.25;;;-1.92;71.93
73103;BME280;61294;65.988;29.172;2023-04-27T02:20:13;98117.44;;;-1.94;72.55
73103;BME280;61294;65.988;29.172;2023-04-27T02:22:43;98124.31;;;-1.95;72.94
73103;BME280;61294;65.988;29.172;2023-04-27T02:25:10;98117.38;;;-1.96;72.94
73103;BME280;61294;65.988;29.172;2023-04-27T02:27:37;98113.03;;;-1.97;72.81
73103;BME280;61294;65.988;29.172;2023-04-27T02:30:07;98118.34;;;-1.94;73.06
73103;BME280;61294;65.988;29.172;2023-04-27T02:32:33;98122.78;;;-1.89;72.67
73103;BME280;61294;65.988;29.172;2023-04-27T02:35:01;98124.75;;;-1.82;73.10
73103;BME280;61294;65.988;29.172;2023-04-27T02:37:27;98122.38;;;-1.76;73.19
73103;BME280;61294;65.988;29.172;2023-04-27T02:39:53;98127.03;;;-1.66;72.80
73103;BME280;61294;65.988;29.172;2023-04-27T02:42:19;98109.53;;;-1.75;73.07
73103;BME280;61294;65.988;29.172;2023-04-27T02:44:45;98123.78;;;-1.60;72.80
73103;BME280;61294;65.988;29.172;2023-04-27T02:47:11;98131.84;;;-1.52;72.65
73103;BME280;61294;65.988;29.172;2023-04-27T02:49:37;98109.50;;;-1.50;72.57
73103;BME280;61294;65.988;29.172;2023-04-27T02:52:04;98130.66;;;-1.36;72.80
73103;BME280;61294;65.988;29.172;2023-04-27T02:54:30;98133.53;;;-1.27;72.76
73103;BME280;61294;65.988;29.172;2023-04-27T02:56:56;98120.50;;;-1.30;72.69
73103;BME280;61294;65.988;29.172;2023-04-27T02:59:22;98134.44;;;-1.27;72.38
73103;BME280;61294;65.988;29.172;2023-04-27T03:01:47;98130.06;;;-1.28;72.73
73103;BME280;61294;65.988;29.172;2023-04-27T03:04:13;98139.69;;;-1.24;72.38
73103;BME280;61294;65.988;29.172;2023-04-27T03:06:39;98138.03;;;-1.22;72.45
73103;BME280;61294;65.988;29.172;2023-04-27T03:09:06;98141.47;;;-1.23;72.89
73103;BME280;61294;65.988;29.172;2023-04-27T03:11:31;98144.28;;;-1.15;73.32
73103;BME280;61294;65.988;29.172;2023-04-27T03:13:57;98129.34;;;-1.24;72.79
73103;BME280;61294;65.988;29.172;2023-04-27T03:16:23;98111.84;;;-1.32;72.87
73103;BME280;61294;65.988;29.172;2023-04-27T03:18:49;98146.72;;;-1.19;72.42
73103;BME280;61294;65.988;29.172;2023-04-27T03:21:15;98141.47;;;-1.23;72.77
73103;BME280;61294;65.988;29.172;2023-04-27T03:23:44;98135.38;;;-1.23;73.98
73103;BME280;61294;65.988;29.172;2023-04-27T03:26:11;98143.28;;;-1.18;75.02
73103;BME280;61294;65.988;29.172;2023-04-27T03:28:37;98131.25;;;-1.18;75.29
73103;BME280;61294;65.988;29.172;2023-04-27T03:31:07;98134.56;;;-1.22;74.88
73103;BME280;61294;65.988;29.172;2023-04-27T03:33:34;98144.34;;;-1.13;74.52
73103;BME280;61294;65.988;29.172;2023-04-27T03:36:01;98142.63;;;-1.13;74.35
73103;BME280;61294;65.988;29.172;2023-04-27T03:38:28;98150.53;;;-1.08;74.34
73103;BME280;61294;65.988;29.172;2023-04-27T03:40:55;98131.25;;;-1.18;74.04
73103;BME280;61294;65.988;29.172;2023-04-27T03:43:22;98133.09;;;-1.15;73.90
73103;BME280;61294;65.988;29.172;2023-04-27T03:45:48;98153.31;;;-1.02;74.15
73103;BME280;61294;65.988;29.172;2023-04-27T03:48:14;98120.06;;;-1.17;73.60
73103;BME280;61294;65.988;29.172;2023-04-27T03:50:40;98154.25;;;-1.00;73.61
73103;BME280;61294;65.988;29.172;2023-04-27T03:53:06;98126.28;;;-1.12;73.38
73103;BME280;61294;65.988;29.172;2023-04-27T03:55:32;98148.28;;;-0.97;73.20
73103;BME280;61294;65.988;29.172;2023-04-27T03:57:57;98149.28;;;-0.94;73.51
73103;BME280;61294;65.988;29.172;2023-04-27T04:00:23;98149.56;;;-0.84;73.25
73103;BME280;61294;65.988;29.172;2023-04-27T04:02:49;98157.47;;;-0.80;73.03
73103;BME280;61294;65.988;29.172;2023-04-27T04:05:17;98161.97;;;-0.74;73.38
73103;BME280;61294;65.988;29.172;2023-04-27T04:07:43;98144.63;;;-0.78;72.56
73103;BME280;61294;65.988;29.172;2023-04-27T04:10:09;98155.94;;;-0.75;73.17
73103;BME280;61294;65.988;29.172;2023-04-27T04:12:35;98152.47;;;-0.75;73.14
73103;BME280;61294;65.988;29.172;2023-04-27T04:15:02;98164.00;;;-0.65;73.29
73103;BME280;61294;65.988;29.172;2023-04-27T04:17:28;98133.28;;;-0.82;72.93
73103;BME280;61294;65.988;29.172;2023-04-27T04:19:53;98158.78;;;-0.67;73.28
73103;BME280;61294;65.988;29.172;2023-04-27T04:22:19;98169.94;;;-0.68;73.21
73103;BME280;61294;65.988;29.172;2023-04-27T04:24:45;98173.69;;;-0.58;72.88
73103;BME280;61294;65.988;29.172;2023-04-27T04:27:12;98177.19;;;-0.56;72.89
73103;BME280;61294;65.988;29.172;2023-04-27T04:29:38;98171.94;;;-0.59;72.59
73103;BME280;61294;65.988;29.172;2023-04-27T04:32:04;98174.75;;;-0.52;72.58
73103;BME280;61294;65.988;29.172;2023-04-27T04:34:31;98176.63;;;-0.47;72.81
73103;BME280;61294;65.988;29.172;2023-04-27T04:36:58;98148.63;;;-0.61;72.09
73103;BME280;61294;65.988;29.172;2023-04-27T04:39:23;98187.22;;;-0.40;71.71
73103;BME280;61294;65.988;29.172;2023-04-27T04:41:49;98191.94;;;-0.26;72.15
73103;BME280;61294;65.988;29.172;2023-04-27T04:44:15;98176.19;;;-0.34;72.05
73103;BME280;61294;65.988;29.172;2023-04-27T04:46:41;98179.63;;;-0.33;71.57
73103;BME280;61294;65.988;29.172;2023-04-27T04:49:07;98170.09;;;-0.35;71.46
73103;BME280;61294;65.988;29.172;2023-04-27T04:51:33;98175.44;;;-0.30;71.53
73103;BME280;61294;65.988;29.172;2023-04-27T04:53:59;98182.69;;;-0.18;71.82
73103;BME280;61294;65.988;29.172;2023-04-27T04:56:25;98164.16;;;-0.32;71.58
73103;BME280;61294;65.988;29.172;2023-04-27T04:58:51;98188.00;;;-0.13;71.71
73103;BME280;61294;65.988;29.172;2023-04-27T05:01:17;98193.44;;;-0.06;71.17
73103;BME280;61294;65.988;29.172;2023-04-27T05:03:42;98197.66;;;-0.08;71.61
73103;BME280;61294;65.988;29.172;2023-04-27T05:06:08;98140.16;;;-0.26;71.44
73103;BME280;61294;65.988;29.172;2023-04-27T05:08:34;98179.69;;;-0.03;71.76
73103;BME280;61294;65.988;29.172;2023-04-27T05:11:01;98179.78;;;0.00;71.29
73103;BME280;61294;65.988;29.172;2023-04-27T05:13:27;98198.34;;;0.15;71.50
73103;BME280;61294;65.988;29.172;2023-04-27T05:15:53;98200.09;;;0.16;71.28
73103;BME280;61294;65.988;29.172;2023-04-27T05:18:19;98200.31;;;0.24;71.63
73103;BME280;61294;65.988;29.172;2023-04-27T05:20:45;98204.75;;;0.28;71.37
73103;BME280;61294;65.988;29.172;2023-04-27T05:23:10;98203.34;;;0.40;70.83
73103;BME280;61294;65.988;29.172;2023-04-27T05:25:36;98200.81;;;0.41;71.11
73103;BME280;61294;65.988;29.172;2023-04-27T05:28:06;98208.72;;;0.46;70.75
73103;BME280;61294;65.988;29.172;2023-04-27T05:30:33;98180.91;;;0.39;70.62
73103;BME280;61294;65.988;29.172;2023-04-27T05:32:59;98192.00;;;0.34;70.46
73103;BME280;61294;65.988;29.172;2023-04-27T05:35:25;98208.03;;;0.51;70.94
73103;BME280;61294;65.988;29.172;2023-04-27T05:37:51;98203.81;;;0.57;70.92
73103;BME280;61294;65.988;29.172;2023-04-27T05:40:17;98207.16;;;0.52;70.71
73103;BME280;61294;65.988;29.172;2023-04-27T05:42:45;98191.28;;;0.40;70.96
73103;BME280;61294;65.988;29.172;2023-04-27T05:45:11;98217.88;;;0.65;70.43
73103;BME280;61294;65.988;29.172;2023-04-27T05:47:37;98193.66;;;0.63;70.14
73103;BME280;61294;65.988;29.172;2023-04-27T05:50:03;98187.19;;;0.80;70.35
73103;BME280;61294;65.988;29.172;2023-04-27T05:52:28;98208.47;;;1.00;69.90
73103;BME280;61294;65.988;29.172;2023-04-27T05:54:56;98206.31;;;1.17;69.25
73103;BME280;61294;65.988;29.172;2023-04-27T05:57:23;98225.84;;;1.38;69.21
73103;BME280;61294;65.988;29.172;2023-04-27T05:59:49;98206.34;;;1.54;68.89
73103;BME280;61294;65.988;29.172;2023-04-27T06:02:15;98191.66;;;1.56;67.16
73103;BME280;61294;65.988;29.172;2023-04-27T06:04:41;98222.63;;;1.85;67.57
73103;BME280;61294;65.988;29.172;2023-04-27T06:07:10;98213.16;;;1.87;66.41
73103;BME280;61294;65.988;29.172;2023-04-27T06:09:37;98228.94;;;1.96;65.60
73103;BME280;61294;65.988;29.172;2023-04-27T06:12:03;98227.28;;;1.98;66.64
73103;BME280;61294;65.988;29.172;2023-04-27T06:14:30;98238.84;;;2.13;66.19
73103;BME280;61294;65.988;29.172;2023-04-27T06:16:56;98231.63;;;2.01;66.02
73103;BME280;61294;65.988;29.172;2023-04-27T06:19:22;98211.19;;;1.77;65.80
73103;BME280;61294;65.988;29.172;2023-04-27T06:21:48;98241.47;;;1.76;66.27
73103;BME280;61294;65.988;29.172;2023-04-27T06:24:14;98236.09;;;1.68;66.15
73103;BME280;61294;65.988;29.172;2023-04-27T06:26:40;98222.81;;;1.56;65.99
73103;BME280;61294;65.988;29.172;2023-04-27T06:29:06;98210.00;;;1.27;67.11
73103;BME280;61294;65.988;29.172;2023-04-27T06:31:33;98207.34;;;1.24;66.82
73103;BME280;61294;65.988;29.172;2023-04-27T06:33:59;98238.78;;;1.36;68.02
73103;BME280;61294;65.988;29.172;2023-04-27T06:36:25;98247.88;;;1.54;68.02
73103;BME280;61294;65.988;29.172;2023-04-27T06:38:54;98245.44;;;1.60;67.82
73103;BME280;61294;65.988;29.172;2023-04-27T06:41:24;98241.19;;;1.65;67.71
73103;BME280;61294;65.988;29.172;2023-04-27T06:43:51;98248.53;;;1.82;66.48
73103;BME280;61294;65.988;29.172;2023-04-27T06:46:16;98252.22;;;1.92;66.57
73103;BME280;61294;65.988;29.172;2023-04-27T06:48:42;98252.28;;;1.95;66.92
73103;BME280;61294;65.988;29.172;2023-04-27T06:51:08;98254.03;;;1.94;66.83
73103;BME280;61294;65.988;29.172;2023-04-27T06:53:34;98243.06;;;1.71;66.65
73103;BME280;61294;65.988;29.172;2023-04-27T06:56:00;98240.81;;;1.85;67.04
73103;BME280;61294;65.988;29.172;2023-04-27T06:58:26;98255.81;;;1.97;66.88
73103;BME280;61294;65.988;29.172;2023-04-27T07:00:52;98258.34;;;1.95;66.21
73103;BME280;61294;65.988;29.172;2023-04-27T07:03:18;98239.72;;;1.75;66.37
73103;BME280;61294;65.988;29.172;2023-04-27T07:05:43;98271.34;;;1.95;66.34
73103;BME280;61294;65.988;29.172;2023-04-27T07:08:11;98228.81;;;1.90;66.19
73103;BME280;61294;65.988;29.172;2023-04-27T07:10:37;98270.88;;;2.12;65.75
73103;BME280;61294;65.988;29.172;2023-04-27T07:13:03;98252.41;;;2.01;66.10
73103;BME280;61294;65.988;29.172;2023-04-27T07:15:32;98257.88;;;2.12;65.20
73103;BME280;61294;65.988;29.172;2023-04-27T07:17:57;98264.25;;;1.88;65.44
73103;BME280;61294;65.988;29.172;2023-04-27T07:20:23;98263.84;;;2.07;65.38
73103;BME280;61294;65.988;29.172;2023-04-27T07:22:49;98261.31;;;2.11;64.96
73103;BME280;61294;65.988;29.172;2023-04-27T07:25:15;98263.16;;;2.16;64.69
73103;BME280;61294;65.988;29.172;2023-04-27T07:27:41;98232.66;;;2.07;64.86
73103;BME280;61294;65.988;29.172;2023-04-27T07:30:08;98275.13;;;2.48;64.07
73103;BME280;61294;65.988;29.172;2023-04-27T07:32:35;98272.81;;;2.62;62.89
73103;BME280;61294;65.988;29.172;2023-04-27T07:35:01;98273.59;;;2.57;62.96
73103;BME280;61294;65.988;29.172;2023-04-27T07:37:28;98242.25;;;2.50;63.18
73103;BME280;61294;65.988;29.172;2023-04-27T07:39:54;98279.09;;;2.71;62.75
73103;BME280;61294;65.988;29.172;2023-04-27T07:42:20;98262.56;;;2.69;62.48
73103;BME280;61294;65.988;29.172;2023-04-27T07:44:49;98273.69;;;2.62;62.65
73103;BME280;61294;65.988;29.172;2023-04-27T07:47:16;98263.59;;;2.78;62.64
73103;BME280;61294;65.988;29.172;2023-04-27T07:49:43;98276.91;;;2.93;62.09
73103;BME280;61294;65.988;29.172;2023-04-27T07:52:11;98275.41;;;3.06;62.34
73103;BME280;61294;65.988;29.172;2023-04-27T07:54:37;98243.41;;;3.10;61.40
73103;BME280;61294;65.988;29.172;2023-04-27T07:57:09;98272.69;;;3.45;60.73
73103;BME280;61294;65.988;29.172;2023-04-27T07:59:36;98258.47;;;3.78;60.15
73103;BME280;61294;65.988;29.172;2023-04-27T08:02:03;98279.75;;;4.05;58.43
73103;BME280;61294;65.988;29.172;2023-04-27T08:04:28;98271.81;;;4.00;56.98
73103;BME280;61294;65.988;29.172;2023-04-27T08:06:54;98271.94;;;4.06;57.17
73103;BME280;61294;65.988;29.172;2023-04-27T08:09:20;98255.25;;;3.95;57.31
73103;BME280;61294;65.988;29.172;2023-04-27T08:11:46;98279.06;;;4.20;57.50
73103;BME280;61294;65.988;29.172;2023-04-27T08:14:11;98286.97;;;4.26;56.29
73103;BME280;61294;65.988;29.172;2023-04-27T08:16:42;98275.22;;;4.56;56.06
73103;BME280;61294;65.988;29.172;2023-04-27T08:19:09;98235.00;;;4.37;54.98
73103;BME280;61294;65.988;29.172;2023-04-27T08:21:36;98283.59;;;4.99;54.50
73103;BME280;61294;65.988;29.172;2023-04-27T08:24:02;98281.28;;;5.25;54.21
73103;BME280;61294;65.988;29.172;2023-04-27T08:26:28;98282.88;;;5.12;53.74
73103;BME280;61294;65.988;29.172;2023-04-27T08:28:54;98254.63;;;4.77;53.79
73103;BME280;61294;65.988;29.172;2023-04-27T08:31:24;98272.03;;;4.78;54.39
73103;BME280;61294;65.988;29.172;2023-04-27T08:33:51;98276.59;;;4.96;54.24
73103;BME280;61294;65.988;29.172;2023-04-27T08:36:26;98282.72;;;4.98;53.64
73103;BME280;61294;65.988;29.172;2023-04-27T08:38:54;98293.63;;;4.66;54.04
73103;BME280;61294;65.988;29.172;2023-04-27T08:41:23;98285.81;;;4.68;54.49
73103;BME280;61294;65.988;29.172;2023-04-27T08:43:50;98285.31;;;4.97;54.20
73103;BME280;61294;65.988;29.172;2023-04-27T08:46:20;98291.34;;;4.93;52.66
73103;BME280;61294;65.988;29.172;2023-04-27T08:48:48;98270.88;;;4.55;54.32
73103;BME280;61294;65.988;29.172;2023-04-27T08:51:14;98281.63;;;4.81;53.63
73103;BME280;61294;65.988;29.172;2023-04-27T08:53:55;98282.81;;;5.08;53.90
73103;BME280;61294;65.988;29.172;2023-04-27T08:56:23;98283.13;;;5.37;53.95
73103;BME280;61294;65.988;29.172;2023-04-27T08:58:56;98291.38;;;5.77;51.99
73103;BME280;61294;65.988;29.172;2023-04-27T09:01:23;98284.75;;;6.22;51.34
73103;BME280;61294;65.988;29.172;2023-04-27T09:03:59;98257.88;;;6.48;50.10
73103;BME280;61294;65.988;29.172;2023-04-27T09:06:33;98284.31;;;7.05;49.71
73103;BME280;61294;65.988;29.172;2023-04-27T09:08:59;98280.03;;;7.45;48.43
73103;BME280;61294;65.988;29.172;2023-04-27T09:11:30;98285.28;;;7.37;47.48
73103;BME280;61294;65.988;29.172;2023-04-27T09:13:57;98252.97;;;7.53;47.40
73103;BME280;61294;65.988;29.172;2023-04-27T09:16:25;98261.72;;;8.14;46.96
73103;BME280;61294;65.988;29.172;2023-04-27T09:18:52;98278.25;;;8.69;45.48
73103;BME280;61294;65.988;29.172;2023-04-27T09:21:26;98278.16;;;10.27;43.28
73103;BME280;61294;65.988;29.172;2023-04-27T09:23:52;98269.78;;;15.15;34.86
73103;BME280;61294;65.988;29.172;2023-04-27T09:26:23;98272.69;;;18.36;29.42
73103;BME280;61294;65.988;29.172;2023-04-27T09:28:55;98256.91;;;18.93;27.55
73103;BME280;61294;65.988;29.172;2023-04-27T09:31:30;98275.47;;;19.15;26.25
73103;BME280;61294;65.988;29.172;2023-04-27T09:33:56;98270.88;;;19.57;25.87
73103;BME280;61294;65.988;29.172;2023-04-27T09:36:22;98266.25;;;18.81;26.38
73103;BME280;61294;65.988;29.172;2023-04-27T09:38:50;98273.66;;;19.54;26.33
73103;BME280;61294;65.988;29.172;2023-04-27T09:41:17;98260.03;;;21.03;24.08
73103;BME280;61294;65.988;29.172;2023-04-27T09:43:43;98256.22;;;22.20;23.33
73103;BME280;61294;65.988;29.172;2023-04-27T09:46:12;98261.03;;;21.83;22.40
73103;BME280;61294;65.988;29.172;2023-04-27T09:48:39;98260.06;;;20.50;23.94
73103;BME280;61294;65.988;29.172;2023-04-27T09:51:06;98269.22;;;21.64;23.11
73103;BME280;61294;65.988;29.172;2023-04-27T09:53:36;98259.38;;;22.73;21.70
73103;BME280;61294;65.988;29.172;2023-04-27T09:58:52;98263.44;;;24.09;20.46
73103;BME280;61294;65.988;29.172;2023-04-27T10:01:39;98273.34;;;25.90;19.37
73103;BME280;61294;65.988;29.172;2023-04-27T10:09:24;98265.88;;;25.05;19.03
73103;BME280;61294;65.988;29.172;2023-04-27T10:11:51;98268.03;;;25.52;19.37
73103;BME280;61294;65.988;29.172;2023-04-27T10:14:21;98271.34;;;26.29;18.07
73103;BME280;61294;65.988;29.172;2023-04-27T10:16:55;98274.41;;;28.20;16.46
73103;BME280;61294;65.988;29.172;2023-04-27T10:19:22;98267.28;;;26.83;17.85
73103;BME280;61294;65.988;29.172;2023-04-27T10:21:59;98279.38;;;26.31;17.36
73103;BME280;61294;65.988;29.172;2023-04-27T10:24:33;98258.84;;;26.28;18.02
73103;BME280;61294;65.988;29.172;2023-04-27T10:27:04;98270.03;;;26.11;17.81
73103;BME280;61294;65.988;29.172;2023-04-27T10:29:44;98260.63;;;26.16;17.98
73103;BME280;61294;65.988;29.172;2023-04-27T10:32:13;98270.28;;;28.05;16.47
73103;BME280;61294;65.988;29.172;2023-04-27T10:34:43;98269.78;;;27.32;16.53
73103;BME280;61294;65.988;29.172;2023-04-27T10:37:11;98280.97;;;27.16;16.55
73103;BME280;61294;65.988;29.172;2023-04-27T10:39:43;98274.38;;;26.49;17.16
73103;BME280;61294;65.988;29.172;2023-04-27T10:42:09;98271.81;;;26.23;16.93
73103;BME280;61294;65.988;29.172;2023-04-27T10:44:36;98252.84;;;25.25;17.55
73103;BME280;61294;65.988;29.172;2023-04-27T10:47:14;98273.44;;;25.13;18.31
73103;BME280;61294;65.988;29.172;2023-04-27T10:49:41;98280.88;;;24.84;18.58
73103;BME280;61294;65.988;29.172;2023-04-27T10:52:07;98275.50;;;25.85;18.12
73103;BME280;61294;65.988;29.172;2023-04-27T10:54:34;98283.72;;;27.38;17.00
73103;BME280;61294;65.988;29.172;2023-04-27T10:57:09;98280.97;;;28.06;16.62
73103;BME280;61294;65.988;29.172;2023-04-27T10:59:55;98282.34;;;26.75;17.14
73103;BME280;61294;65.988;29.172;2023-04-27T11:02:26;98295.28;;;27.41;16.80
73103;BME280;61294;65.988;29.172;2023-04-27T11:04:52;98295.09;;;27.08;16.93
73103;BME280;61294;65.988;29.172;2023-04-27T11:07:25;98290.53;;;26.13;17.15
73103;BME280;61294;65.988;29.172;2023-04-27T11:09:52;98295.78;;;26.28;17.50
73103;BME280;61294;65.988;29.172;2023-04-27T11:12:18;98288.53;;;22.80;19.81
73103;BME280;61294;65.988;29.172;2023-04-27T11:14:43;98295.03;;;17.65;24.72
73103;BME280;61294;65.988;29.172;2023-04-27T11:17:09;98290.59;;;16.95;26.49
73103;BME280;61294;65.988;29.172;2023-04-27T11:19:47;98303.34;;;18.67;24.53
73103;BME280;61294;65.988;29.172;2023-04-27T11:22:14;98295.50;;;22.05;20.64
73103;BME280;61294;65.988;29.172;2023-04-27T11:24:49;98289.28;;;24.92;19.34
73103;BME280;61294;65.988;29.172;2023-04-27T11:27:15;98284.38;;;24.31;19.07
73103;BME280;61294;65.988;29.172;2023-04-27T11:29:42;98290.78;;;25.97;18.25
73103;BME280;61294;65.988;29.172;2023-04-27T11:32:18;98282.16;;;26.29;17.68
73103;BME280;61294;65.988;29.172;2023-04-27T11:34:50;98294.31;;;26.95;17.62
73103;BME280;61294;65.988;29.172;2023-04-27T11:37:26;98304.09;;;26.00;17.40
73103;BME280;61294;65.988;29.172;2023-04-27T11:39:53;98302.59;;;26.45;17.41
73103;BME280;61294;65.988;29.172;2023-04-27T11:42:21;98305.06;;;25.87;17.10
73103;BME280;61294;65.988;29.172;2023-04-27T11:45:01;98303.84;;;26.52;16.72
73103;BME280;61294;65.988;29.172;2023-04-27T11:47:29;98301.09;;;26.65;16.83
73103;BME280;61294;65.988;29.172;2023-04-27T11:49:57;98300.91;;;27.83;16.35
73103;BME280;61294;65.988;29.172;2023-04-27T11:52:34;98303.25;;;27.31;16.94
73103;BME280;61294;65.988;29.172;2023-04-27T11:55:01;98288.56;;;26.28;17.09
73103;BME280;61294;65.988;29.172;2023-04-27T11:57:30;98301.75;;;27.15;17.08
73103;BME280;61294;65.988;29.172;2023-04-27T11:59:57;98297.38;;;27.37;16.74
73103;BME280;61294;65.988;29.172;2023-04-27T12:02:25;98297.50;;;27.69;16.71
73103;BME280;61294;65.988;29.172;2023-04-27T12:04:51;98288.00;;;27.30;16.60
73103;BME280;61294;65.988;29.172;2023-04-27T12:07:18;98298.34;;;28.04;16.61
73103;BME280;61294;65.988;29.172;2023-04-27T12:09:44;98300.44;;;27.78;16.82
73103;BME280;61294;65.988;29.172;2023-04-27T12:12:10;98298.97;;;27.40;16.47
73103;BME280;61294;65.988;29.172;2023-04-27T12:14:37;98303.75;;;27.47;16.08
73103;BME280;61294;65.988;29.172;2023-04-27T12:17:03;98304.00;;;27.44;16.33
73103;BME280;61294;65.988;29.172;2023-04-27T12:19:28;98304.91;;;28.34;16.67
73103;BME280;61294;65.988;29.172;2023-04-27T12:21:56;98320.91;;;27.12;16.72
73103;BME280;61294;65.988;29.172;2023-04-27T12:24:22;98302.19;;;26.86;17.00
73103;BME280;61294;65.988;29.172;2023-04-27T12:26:48;98303.97;;;26.75;17.06
73103;BME280;61294;65.988;29.172;2023-04-27T12:29:15;98315.19;;;26.81;16.58
73103;BME280;61294;65.988;29.172;2023-04-27T12:31:41;98317.53;;;26.13;17.59
73103;BME280;61294;65.988;29.172;2023-04-27T12:34:07;98308.41;;;26.51;17.20
73103;BME280;61294;65.988;29.172;2023-04-27T12:36:32;98316.09;;;26.45;16.66
73103;BME280;61294;65.988;29.172;2023-04-27T12:38:59;98311.41;;;25.23;17.78
73103;BME280;61294;65.988;29.172;2023-04-27T12:41:37;98325.75;;;25.49;17.94
73103;BME280;61294;65.988;29.172;2023-04-27T12:44:03;98320.97;;;26.88;17.00
73103;BME280;61294;65.988;29.172;2023-04-27T12:46:29;98319.03;;;26.66;16.97
73103;BME280;61294;65.988;29.172;2023-04-27T12:48:55;98321.06;;;26.27;16.84
73103;BME280;61294;65.988;29.172;2023-04-27T12:51:22;98321.13;;;26.14;18.02
73103;BME280;61294;65.988;29.172;2023-04-27T12:53:47;98324.66;;;25.00;17.79
73103;BME280;61294;65.988;29.172;2023-04-27T12:56:13;98308.91;;;25.71;17.92
73103;BME280;61294;65.988;29.172;2023-04-27T12:58:39;98308.78;;;26.23;17.13
73103;BME280;61294;65.988;29.172;2023-04-27T13:01:06;98306.97;;;26.59;17.40